createdAt,value
2022-10-21T00:01:43.785Z,3.90
2022-10-21T00:04:13.118Z,4.93
2022-10-21T00:06:45.807Z,4.60
2022-10-21T00:09:15.585Z,5.20
2022-10-21T00:11:45.168Z,4.50
2022-10-21T00:14:14.001Z,4.33
2022-10-21T00:16:44.405Z,5.17
2022-10-21T00:19:13.507Z,3.70
2022-10-21T00:21:42.680Z,3.33
2022-10-21T00:24:12.033Z,3.10
2022-10-21T00:26:41.027Z,4.10
2022-10-21T00:29:10.225Z,3.10
2022-10-21T00:31:39.403Z,3.17
2022-10-21T00:34:10.192Z,3.40
2022-10-21T00:36:39.055Z,3.60
2022-10-21T00:39:08.072Z,4.70
2022-10-21T00:41:36.971Z,4.37
2022-10-21T00:44:07.709Z,3.00
2022-10-21T00:46:38.613Z,3.63
2022-10-21T00:49:11.439Z,3.50
2022-10-21T00:51:40.865Z,3.40
2022-10-21T00:54:09.908Z,3.37
2022-10-21T00:56:39.322Z,4.47
2022-10-21T00:59:09.036Z,2.77
2022-10-21T01:01:38.085Z,4.07
2022-10-21T01:04:07.388Z,3.87
2022-10-21T01:06:46.705Z,3.90
2022-10-21T01:09:16.153Z,3.77
2022-10-21T01:11:46.831Z,2.63
2022-10-21T01:14:20.548Z,3.60
2022-10-21T01:16:53.411Z,3.43
2022-10-21T01:19:32.776Z,3.03
2022-10-21T01:22:06.195Z,2.77
2022-10-21T01:24:50.921Z,3.70
2022-10-21T01:27:26.275Z,3.00
2022-10-21T01:30:17.981Z,3.20
2022-10-21T01:33:05.815Z,3.23
2022-10-21T01:35:40.923Z,2.80
2022-10-21T01:38:11.512Z,3.40
2022-10-21T01:40:45.755Z,3.37
2022-10-21T01:43:18.481Z,3.00
2022-10-21T01:45:49.736Z,3.10
2022-10-21T01:48:20.251Z,2.60
2022-10-21T01:50:53.869Z,3.30
2022-10-21T01:53:24.021Z,2.97
2022-10-21T01:55:54.463Z,3.97
2022-10-21T01:58:26.427Z,3.67
2022-10-21T02:00:56.853Z,2.57
2022-10-21T02:03:27.218Z,3.43
2022-10-21T02:05:57.543Z,3.23
2022-10-21T02:08:26.711Z,2.40
2022-10-21T02:10:58.909Z,3.27
2022-10-21T02:13:29.114Z,4.07
2022-10-21T02:16:00.636Z,3.50
2022-10-21T02:18:29.620Z,3.33
2022-10-21T02:21:01.700Z,3.20
2022-10-21T02:23:33.766Z,2.67
2022-10-21T02:26:03.197Z,2.77
2022-10-21T02:28:32.102Z,2.77
2022-10-21T02:31:06.749Z,2.13
2022-10-21T02:33:38.332Z,3.03
2022-10-21T02:36:13.337Z,3.63
2022-10-21T02:38:44.942Z,2.77
2022-10-21T02:41:16.058Z,2.80
2022-10-21T02:43:49.590Z,2.90
2022-10-21T02:46:18.674Z,2.60
2022-10-21T02:48:48.886Z,2.43
2022-10-21T02:51:19.492Z,2.70
2022-10-21T02:53:48.459Z,2.20
2022-10-21T02:56:17.711Z,3.80
2022-10-21T02:58:48.413Z,4.30
2022-10-21T03:01:17.338Z,2.93
2022-10-21T03:03:46.209Z,2.70
2022-10-21T03:06:15.306Z,3.57
2022-10-21T03:08:46.151Z,2.20
2022-10-21T03:11:15.248Z,2.43
2022-10-21T03:13:44.318Z,2.60
2022-10-21T03:18:57.268Z,2.87
2022-10-21T03:21:26.257Z,3.27
2022-10-21T03:24:11.101Z,1.90
2022-10-21T03:27:07.454Z,2.40
2022-10-21T03:30:18.393Z,3.23
2022-10-21T03:32:48.568Z,2.50
2022-10-21T03:35:36.744Z,3.73
2022-10-21T03:38:28.842Z,2.03
2022-10-21T03:40:59.245Z,3.10
2022-10-21T03:43:28.587Z,2.40
2022-10-21T03:45:58.022Z,2.57
2022-10-21T03:48:26.783Z,1.57
2022-10-21T03:50:58.225Z,1.57
2022-10-21T03:53:42.230Z,2.10
2022-10-21T03:56:14.573Z,2.10
2022-10-21T03:58:44.161Z,1.70
2022-10-21T04:01:14.441Z,1.60
2022-10-21T04:03:43.589Z,3.33
2022-10-21T04:06:13.240Z,1.93
2022-10-21T04:09:02.824Z,1.93
2022-10-21T04:11:33.769Z,1.60
2022-10-21T04:14:04.021Z,2.03
2022-10-21T04:20:12.068Z,1.20
2022-10-21T04:22:41.078Z,1.90
2022-10-21T04:25:11.495Z,1.77
2022-10-21T04:27:42.113Z,1.83
2022-10-21T04:30:11.819Z,1.50
2022-10-21T04:32:41.535Z,1.80
2022-10-21T04:35:16.504Z,1.70
2022-10-21T04:37:45.626Z,1.97
2022-10-21T04:40:14.462Z,1.17
2022-10-21T04:42:45.649Z,1.60
2022-10-21T04:45:15.955Z,2.20
2022-10-21T04:47:46.684Z,1.20
2022-10-21T04:50:21.777Z,2.13
2022-10-21T04:52:50.835Z,1.43
2022-10-21T04:55:21.247Z,1.67
2022-10-21T04:57:52.107Z,1.33
2022-10-21T05:00:22.945Z,1.93
2022-10-21T05:02:51.953Z,2.10
2022-10-21T05:05:21.101Z,1.63
2022-10-21T05:07:51.228Z,1.63
2022-10-21T05:10:20.518Z,2.10
2022-10-21T05:12:49.279Z,1.07
2022-10-21T05:15:20.122Z,1.23
2022-10-21T05:17:49.937Z,1.03
2022-10-21T05:20:20.587Z,1.40
2022-10-21T05:22:51.960Z,0.97
2022-10-21T05:25:21.378Z,1.37
2022-10-21T05:27:51.366Z,1.23
2022-10-21T05:30:23.681Z,2.00
2022-10-21T05:32:53.212Z,1.20
2022-10-21T05:35:22.062Z,1.97
2022-10-21T05:37:51.489Z,1.40
2022-10-21T05:40:20.565Z,1.83
2022-10-21T05:42:51.205Z,1.57
2022-10-21T05:45:21.921Z,0.87
2022-10-21T05:47:52.390Z,1.43
2022-10-21T05:50:21.901Z,1.60
2022-10-21T05:52:52.492Z,1.33
2022-10-21T05:55:22.951Z,1.00
2022-10-21T05:57:53.364Z,0.80
2022-10-21T06:00:24.196Z,1.20
2022-10-21T06:02:56.440Z,1.27
2022-10-21T06:05:26.060Z,1.37
2022-10-21T06:07:55.484Z,1.40
2022-10-21T06:10:28.261Z,1.17
2022-10-21T06:12:58.546Z,1.40
2022-10-21T06:15:33.660Z,1.00
2022-10-21T06:18:02.719Z,1.53
2022-10-21T06:20:32.000Z,1.03
2022-10-21T06:23:02.242Z,1.20
2022-10-21T06:25:33.299Z,1.00
2022-10-21T06:28:02.408Z,1.90
2022-10-21T06:30:33.288Z,1.60
2022-10-21T06:33:02.427Z,1.73
2022-10-21T06:35:31.403Z,1.03
2022-10-21T06:38:00.783Z,0.97
2022-10-21T06:40:30.379Z,0.80
2022-10-21T06:43:00.996Z,1.90
2022-10-21T06:45:31.985Z,1.50
2022-10-21T06:48:04.545Z,0.90
2022-10-21T06:50:36.034Z,1.20
2022-10-21T06:53:05.273Z,1.73
2022-10-21T06:55:34.770Z,1.67
2022-10-21T06:58:05.125Z,0.90
2022-10-21T07:00:39.239Z,1.70
2022-10-21T07:03:09.721Z,1.63
2022-10-21T07:05:53.062Z,1.40
2022-10-21T07:08:29.831Z,1.33
2022-10-21T07:11:11.068Z,1.37
2022-10-21T07:13:41.652Z,2.10
2022-10-21T07:16:14.825Z,1.40
2022-10-21T07:18:48.811Z,1.43
2022-10-21T07:21:20.023Z,2.63
2022-10-21T07:23:52.280Z,1.13
2022-10-21T07:26:23.041Z,1.50
2022-10-21T07:28:53.313Z,1.10
2022-10-21T07:31:23.252Z,1.97
2022-10-21T07:33:55.917Z,1.77
2022-10-21T07:36:26.705Z,1.80
2022-10-21T07:38:56.751Z,2.00
2022-10-21T07:41:27.264Z,1.40
2022-10-21T07:43:57.864Z,1.57
2022-10-21T07:46:27.522Z,2.33
2022-10-21T07:48:58.776Z,1.73
2022-10-21T07:51:39.978Z,1.47
2022-10-21T07:54:12.614Z,1.87
2022-10-21T07:56:47.132Z,1.83
2022-10-21T07:59:21.672Z,1.33
2022-10-21T08:01:51.596Z,1.13
2022-10-21T08:04:30.725Z,1.20
2022-10-21T08:07:04.844Z,0.83
2022-10-21T08:09:38.376Z,1.33
2022-10-21T08:12:10.445Z,0.90
2022-10-21T08:14:44.234Z,1.77
2022-10-21T08:17:13.770Z,1.17
2022-10-21T08:22:24.488Z,1.10
2022-10-21T08:24:55.069Z,1.23
2022-10-21T08:27:27.939Z,1.10
2022-10-21T08:29:57.147Z,1.20
2022-10-21T08:32:26.964Z,1.90
2022-10-21T08:34:58.687Z,1.73
2022-10-21T08:37:27.970Z,0.90
2022-10-21T08:39:57.477Z,1.30
2022-10-21T08:42:28.691Z,1.13
2022-10-21T08:45:01.466Z,1.90
2022-10-21T08:47:35.148Z,1.20
2022-10-21T08:50:07.553Z,1.40
2022-10-21T08:52:42.256Z,1.43
2022-10-21T08:55:18.711Z,2.33
2022-10-21T08:57:49.046Z,1.57
2022-10-21T09:00:23.463Z,1.50
2022-10-21T09:03:14.927Z,1.40
2022-10-21T09:06:00.980Z,2.23
2022-10-21T09:08:35.728Z,1.03
2022-10-21T09:11:08.529Z,1.73
2022-10-21T09:13:45.158Z,1.50
2022-10-21T09:16:19.618Z,1.20
2022-10-21T09:18:54.827Z,1.47
2022-10-21T09:21:29.661Z,1.50
2022-10-21T09:24:13.052Z,1.50
2022-10-21T09:26:46.709Z,1.77
2022-10-21T09:29:25.204Z,2.40
2022-10-21T09:32:02.376Z,2.10
2022-10-21T09:34:50.801Z,1.37
2022-10-21T09:37:31.644Z,1.77
2022-10-21T09:40:08.147Z,1.60
2022-10-21T09:42:48.688Z,1.40
2022-10-21T09:45:21.827Z,1.70
2022-10-21T09:47:54.681Z,2.40
2022-10-21T09:50:28.821Z,2.20
2022-10-21T09:53:05.584Z,1.73
2022-10-21T09:55:38.325Z,1.77
2022-10-21T09:58:08.886Z,1.50
2022-10-21T10:00:46.652Z,1.70
2022-10-21T10:03:32.248Z,1.83
2022-10-21T10:06:02.304Z,2.47
2022-10-21T10:08:38.953Z,3.40
2022-10-21T10:11:19.239Z,1.30
2022-10-21T10:13:49.641Z,3.33
2022-10-21T10:16:27.452Z,2.87
2022-10-21T10:19:13.973Z,2.30
2022-10-21T10:21:49.470Z,2.83
2022-10-21T10:24:22.804Z,2.30
2022-10-21T10:26:54.835Z,2.93
2022-10-21T10:29:27.213Z,6.63
2022-10-21T10:31:59.169Z,5.83
2022-10-21T10:34:32.226Z,4.27
2022-10-21T10:37:10.029Z,2.70
2022-10-21T10:39:44.823Z,2.70
2022-10-21T10:42:18.490Z,2.20
2022-10-21T10:44:48.641Z,1.77
2022-10-21T10:47:27.387Z,1.47
2022-10-21T10:49:59.019Z,1.97
2022-10-21T10:52:28.899Z,2.00
2022-10-21T10:55:19.591Z,1.33
2022-10-21T10:58:10.670Z,1.73
2022-10-21T11:00:48.512Z,1.90
2022-10-21T11:03:26.087Z,1.97
2022-10-21T11:05:58.237Z,2.20
2022-10-21T11:08:33.326Z,2.23
2022-10-21T11:11:08.987Z,2.30
2022-10-21T11:13:42.183Z,1.77
2022-10-21T11:16:21.868Z,1.80
2022-10-21T11:18:54.886Z,1.30
2022-10-21T11:21:33.808Z,1.53
2022-10-21T11:24:20.900Z,1.53
2022-10-21T11:26:55.955Z,2.33
2022-10-21T11:29:37.176Z,1.60
2022-10-21T11:32:15.128Z,1.77
2022-10-21T11:34:56.262Z,3.67
2022-10-21T11:37:32.945Z,1.97
2022-10-21T11:40:07.341Z,1.77
2022-10-21T11:42:44.517Z,2.20
2022-10-21T11:45:29.387Z,3.30
2022-10-21T11:48:05.815Z,4.10
2022-10-21T11:50:44.456Z,2.20
2022-10-21T11:53:26.312Z,2.77
2022-10-21T11:56:04.139Z,2.03
2022-10-21T11:58:44.961Z,2.60
2022-10-21T12:01:26.311Z,3.07
2022-10-21T12:04:10.790Z,2.07
2022-10-21T12:06:48.575Z,3.03
2022-10-21T12:09:19.972Z,2.07
2022-10-21T12:11:53.897Z,2.60
2022-10-21T12:14:35.709Z,3.93
2022-10-21T12:17:15.671Z,1.83
2022-10-21T12:19:49.631Z,2.57
2022-10-21T12:22:21.480Z,3.33
2022-10-21T12:24:54.350Z,1.87
2022-10-21T12:27:29.370Z,1.90
2022-10-21T12:30:11.996Z,1.17
2022-10-21T12:38:26.736Z,3.00
2022-10-21T12:41:11.338Z,1.87
2022-10-21T12:43:41.529Z,1.30
2022-10-21T12:46:16.760Z,0.90
2022-10-21T12:48:47.949Z,1.07
2022-10-21T12:51:21.763Z,1.60
2022-10-21T12:54:04.835Z,1.17
2022-10-21T12:56:44.868Z,2.13
2022-10-21T12:59:43.078Z,2.07
2022-10-21T13:02:35.161Z,1.80
2022-10-21T13:05:06.173Z,1.33
2022-10-21T13:07:39.933Z,1.43
2022-10-21T13:10:40.260Z,0.60
2022-10-21T13:13:28.367Z,1.00
2022-10-21T13:16:21.693Z,0.70
2022-10-21T13:18:59.552Z,0.53
2022-10-21T13:21:47.660Z,1.17
2022-10-21T13:24:25.399Z,1.23
2022-10-21T13:26:58.046Z,1.00
2022-10-21T13:29:34.733Z,1.00
2022-10-21T13:32:39.355Z,0.90
2022-10-21T13:35:25.403Z,0.90
2022-10-21T13:37:58.347Z,0.90
2022-10-21T13:40:30.120Z,1.33
2022-10-21T13:43:03.213Z,1.20
2022-10-21T13:45:38.518Z,0.67
2022-10-21T13:48:18.549Z,0.63
2022-10-21T13:51:04.931Z,0.97
2022-10-21T13:53:40.497Z,0.73
2022-10-21T13:56:11.344Z,1.10
2022-10-21T13:58:46.552Z,0.97
2022-10-21T14:01:18.899Z,0.80
2022-10-21T14:03:55.138Z,1.40
2022-10-21T14:06:39.941Z,1.27
2022-10-21T14:09:10.139Z,1.17
2022-10-21T14:11:45.222Z,0.73
2022-10-21T14:14:18.577Z,1.50
2022-10-21T14:17:15.529Z,1.30
2022-10-21T14:19:49.670Z,1.87
2022-10-21T14:22:24.629Z,1.60
2022-10-21T14:24:57.210Z,1.70
2022-10-21T14:27:29.084Z,1.87
2022-10-21T14:30:03.956Z,1.93
2022-10-21T14:32:38.254Z,2.17
2022-10-21T14:35:12.249Z,2.00
2022-10-21T14:37:54.423Z,2.47
2022-10-21T14:40:27.215Z,2.30
2022-10-21T14:43:00.900Z,1.90
2022-10-21T14:45:31.785Z,1.90
2022-10-21T14:48:05.460Z,1.17
2022-10-21T14:50:35.064Z,0.83
2022-10-21T14:53:14.578Z,1.37
2022-10-21T14:55:45.246Z,2.03
2022-10-21T14:58:23.510Z,1.13
2022-10-21T15:00:57.084Z,0.97
2022-10-21T15:03:43.293Z,0.80
2022-10-21T15:06:14.298Z,1.20
2022-10-21T15:08:46.444Z,1.00
2022-10-21T15:11:23.939Z,0.83
2022-10-21T15:14:02.397Z,2.00
2022-10-21T15:16:32.518Z,1.83
2022-10-21T15:19:09.929Z,1.10
2022-10-21T15:21:42.267Z,1.90
2022-10-21T15:24:27.221Z,2.40
2022-10-21T15:27:21.240Z,2.43
2022-10-21T15:29:57.884Z,3.97
2022-10-21T15:32:30.441Z,2.50
2022-10-21T15:35:02.936Z,2.27
2022-10-21T15:37:39.805Z,1.20
2022-10-21T15:40:15.978Z,1.00
2022-10-21T15:42:46.973Z,0.60
2022-10-21T15:45:17.954Z,1.10
2022-10-21T15:47:49.007Z,1.37
2022-10-21T15:50:21.480Z,1.07
2022-10-21T15:52:52.386Z,0.90
2022-10-21T15:55:24.892Z,2.20
2022-10-21T15:57:56.301Z,1.40
2022-10-21T16:00:32.060Z,0.77
2022-10-21T16:03:02.082Z,1.03
2022-10-21T16:05:35.010Z,1.43
2022-10-21T16:08:04.926Z,0.80
2022-10-21T16:10:41.883Z,2.20
2022-10-21T16:13:12.159Z,1.07
2022-10-21T16:15:41.887Z,1.53
2022-10-21T16:18:14.480Z,3.13
2022-10-21T16:20:44.777Z,3.63
2022-10-21T16:23:28.076Z,2.27
2022-10-21T16:26:05.657Z,1.20
2022-10-21T16:28:37.766Z,1.10
2022-10-21T16:31:12.230Z,1.10
2022-10-21T16:33:45.120Z,0.83
2022-10-21T16:36:25.639Z,1.83
2022-10-21T16:38:56.800Z,1.70
2022-10-21T16:41:29.200Z,1.47
2022-10-21T16:44:01.077Z,1.00
2022-10-21T16:46:34.143Z,0.83
2022-10-21T16:49:09.164Z,1.73
2022-10-21T16:51:46.322Z,1.20
2022-10-21T16:54:25.222Z,1.83
2022-10-21T16:57:12.350Z,3.00
2022-10-21T16:59:49.423Z,2.70
2022-10-21T17:02:20.511Z,3.40
2022-10-21T17:05:01.477Z,1.57
2022-10-21T17:07:33.116Z,3.27
2022-10-21T17:12:48.450Z,3.10
2022-10-21T17:15:21.175Z,2.40
2022-10-21T17:17:51.977Z,2.90
2022-10-21T17:20:27.073Z,3.30
2022-10-21T17:22:57.296Z,5.60
2022-10-21T17:25:31.757Z,4.60
2022-10-21T17:28:05.676Z,4.10
2022-10-21T17:30:39.227Z,4.27
2022-10-21T17:33:20.978Z,4.87
2022-10-21T17:35:57.216Z,3.93
2022-10-21T17:38:35.062Z,6.20
2022-10-21T17:41:05.099Z,4.03
2022-10-21T17:43:37.930Z,2.90
2022-10-21T17:46:15.274Z,3.33
2022-10-21T17:48:46.879Z,2.20
2022-10-21T17:51:22.927Z,2.50
2022-10-21T17:53:53.339Z,4.53
2022-10-21T17:56:26.259Z,2.93
2022-10-21T17:59:01.783Z,3.20
2022-10-21T18:01:44.745Z,3.87
2022-10-21T18:04:14.293Z,3.17
2022-10-21T18:06:44.628Z,3.17
2022-10-21T18:09:14.730Z,3.47
2022-10-21T18:11:47.195Z,3.00
2022-10-21T18:14:22.325Z,2.30
2022-10-21T18:16:54.679Z,3.10
2022-10-21T18:19:24.349Z,4.27
2022-10-21T18:21:54.563Z,2.10
2022-10-21T18:24:29.646Z,2.53
2022-10-21T18:26:59.626Z,1.57
2022-10-21T18:29:31.654Z,2.50
2022-10-21T18:32:04.847Z,1.77
2022-10-21T18:34:35.129Z,2.57
2022-10-21T18:37:05.003Z,2.37
2022-10-21T18:39:34.768Z,2.80
2022-10-21T18:42:05.487Z,4.00
2022-10-21T18:44:35.249Z,2.23
2022-10-21T18:47:07.843Z,2.27
2022-10-21T18:49:37.143Z,1.70
2022-10-21T18:52:06.919Z,1.13
2022-10-21T18:54:36.515Z,1.40
2022-10-21T18:57:21.584Z,1.63
2022-10-21T18:59:55.912Z,1.20
2022-10-21T19:02:31.665Z,2.00
2022-10-21T19:05:02.446Z,1.90
2022-10-21T19:07:32.652Z,1.53
2022-10-21T19:10:07.061Z,2.17
2022-10-21T19:12:38.272Z,1.53
2022-10-21T19:15:08.231Z,0.63
2022-10-21T19:17:45.407Z,1.70
2022-10-21T19:23:00.281Z,1.00
2022-10-21T19:25:36.932Z,2.43
2022-10-21T19:28:06.957Z,2.43
2022-10-21T19:30:40.876Z,1.67
2022-10-21T19:33:16.636Z,1.30
2022-10-21T19:35:48.041Z,1.43
2022-10-21T19:38:26.116Z,2.23
2022-10-21T19:41:02.627Z,1.30
2022-10-21T19:43:33.477Z,1.03
2022-10-21T19:46:06.498Z,1.80
2022-10-21T19:48:55.765Z,1.30
2022-10-21T19:51:32.136Z,1.53
2022-10-21T19:54:03.891Z,1.40
2022-10-21T19:56:34.523Z,1.97
2022-10-21T19:59:04.218Z,1.43
2022-10-21T20:01:36.307Z,1.57
2022-10-21T20:04:08.229Z,1.00
2022-10-21T20:06:42.133Z,2.07
2022-10-21T20:09:15.214Z,1.43
2022-10-21T20:11:47.702Z,1.97
2022-10-21T20:14:19.624Z,4.30
2022-10-21T20:16:51.541Z,2.93
2022-10-21T20:19:23.070Z,2.30
2022-10-21T20:21:55.307Z,2.27
2022-10-21T20:24:24.746Z,2.13
2022-10-21T20:26:59.651Z,1.40
2022-10-21T20:29:32.593Z,1.70
2022-10-21T20:32:03.675Z,2.10
2022-10-21T20:34:37.493Z,5.17
2022-10-21T20:37:09.165Z,3.27
2022-10-21T20:39:39.856Z,2.80
2022-10-21T20:42:13.365Z,2.27
2022-10-21T20:44:43.085Z,2.57
2022-10-21T20:47:15.796Z,1.77
2022-10-21T20:49:45.356Z,1.67
2022-10-21T20:52:25.587Z,1.50
2022-10-21T20:54:56.154Z,1.33
2022-10-21T20:57:40.366Z,1.40
2022-10-21T21:00:10.776Z,1.20
2022-10-21T21:02:43.053Z,1.33
2022-10-21T21:05:20.588Z,1.70
2022-10-21T21:08:02.475Z,1.10
2022-10-21T21:10:33.702Z,1.27
2022-10-21T21:13:03.716Z,1.90
2022-10-21T21:15:55.010Z,1.37
2022-10-21T21:18:24.926Z,1.47
2022-10-21T21:20:54.816Z,1.10
2022-10-21T21:23:26.999Z,2.20
2022-10-21T21:25:56.794Z,1.77
2022-10-21T21:28:30.573Z,1.63
2022-10-21T21:34:15.342Z,2.20
2022-10-21T21:36:49.967Z,1.50
2022-10-21T21:39:28.928Z,1.53
2022-10-21T21:42:14.267Z,1.07
2022-10-21T21:44:45.522Z,0.70
2022-10-21T21:47:23.210Z,1.80
2022-10-21T21:49:52.617Z,0.90
2022-10-21T21:55:20.992Z,1.07
2022-10-21T21:57:51.501Z,1.77
2022-10-21T22:00:23.161Z,1.40
2022-10-21T22:02:55.033Z,1.23
2022-10-21T22:05:32.999Z,1.17
2022-10-21T22:08:03.319Z,1.07
2022-10-21T22:10:34.544Z,0.90
2022-10-21T22:13:09.290Z,1.80
2022-10-21T22:15:54.129Z,1.60
2022-10-21T22:18:24.521Z,1.53
2022-10-21T22:20:54.825Z,0.80
2022-10-21T22:23:24.744Z,1.10
2022-10-21T22:25:56.385Z,1.73
2022-10-21T22:28:26.018Z,1.57
2022-10-21T22:33:47.533Z,0.70
2022-10-21T22:36:19.010Z,1.53
2022-10-21T22:38:48.410Z,1.37
2022-10-21T22:41:19.542Z,1.80
2022-10-21T22:43:48.743Z,1.17
2022-10-21T22:46:29.752Z,1.27
2022-10-21T22:49:03.133Z,1.07
2022-10-21T22:51:33.457Z,0.93
2022-10-21T22:54:02.714Z,0.97
2022-10-21T22:56:33.629Z,0.70
2022-10-21T22:59:03.096Z,1.10
2022-10-21T23:04:15.869Z,1.40
2022-10-21T23:06:45.518Z,1.83
2022-10-21T23:09:14.854Z,1.13
2022-10-21T23:11:47.340Z,1.47
2022-10-21T23:14:16.832Z,1.13
2022-10-21T23:16:45.649Z,1.27
2022-10-21T23:19:15.260Z,1.93
2022-10-21T23:21:44.392Z,0.57
2022-10-21T23:24:13.578Z,0.73
2022-10-21T23:26:42.748Z,1.53
2022-10-21T23:29:13.219Z,1.00
2022-10-21T23:31:42.134Z,0.97
2022-10-21T23:34:12.450Z,0.90
2022-10-21T23:36:43.092Z,1.00
2022-10-21T23:39:12.850Z,1.57
2022-10-21T23:41:42.234Z,1.00
2022-10-21T23:44:12.992Z,1.37
2022-10-21T23:46:42.149Z,1.40
2022-10-21T23:49:11.059Z,2.63
2022-10-21T23:51:40.361Z,2.07
2022-10-21T23:54:09.385Z,3.07
2022-10-21T23:56:38.496Z,1.53
2022-10-21T23:59:08.255Z,1.47
